createdAt,value
2017-02-19T00:01:12.301Z,0
2017-02-19T00:02:26.030Z,0
2017-02-19T00:03:39.746Z,0
2017-02-19T00:04:53.452Z,0
2017-02-19T00:06:07.173Z,0
2017-02-19T00:07:19.689Z,0
2017-02-19T00:08:32.791Z,0
2017-02-19T00:09:46.521Z,0
2017-02-19T00:11:00.272Z,0
2017-02-19T00:12:14.001Z,0
2017-02-19T00:13:27.713Z,0
2017-02-19T00:14:41.446Z,0
2017-02-19T00:15:55.212Z,0
2017-02-19T00:17:08.936Z,0
2017-02-19T00:18:22.682Z,0
2017-02-19T00:19:35.232Z,0
2017-02-19T00:20:48.319Z,0
2017-02-19T00:22:02.031Z,0
2017-02-19T00:23:15.767Z,0
2017-02-19T00:24:28.968Z,0
2017-02-19T00:25:42.678Z,0
2017-02-19T00:26:56.416Z,0
2017-02-19T00:28:10.155Z,0
2017-02-19T00:29:23.869Z,0
2017-02-19T00:30:37.012Z,0
2017-02-19T00:31:50.755Z,0
2017-02-19T00:33:04.449Z,0
2017-02-19T00:34:16.947Z,0
2017-02-19T00:35:30.654Z,0
2017-02-19T00:36:43.180Z,0
2017-02-19T00:37:56.887Z,0
2017-02-19T00:39:10.018Z,0
2017-02-19T00:40:23.754Z,0
2017-02-19T00:41:37.440Z,0
2017-02-19T00:42:51.165Z,0
2017-02-19T00:44:04.877Z,0
2017-02-19T00:45:17.378Z,0
2017-02-19T00:46:31.141Z,0
2017-02-19T00:47:44.888Z,0
2017-02-19T00:48:58.611Z,0
2017-02-19T00:50:12.327Z,0
2017-02-19T00:51:26.056Z,0
2017-02-19T00:52:39.828Z,0
2017-02-19T00:53:53.571Z,0
2017-02-19T00:55:07.274Z,0
2017-02-19T00:56:20.412Z,0
2017-02-19T00:57:34.154Z,0
2017-02-19T00:58:47.879Z,0
2017-02-19T01:00:01.628Z,0
2017-02-19T01:01:14.785Z,0
2017-02-19T01:02:27.885Z,0
2017-02-19T01:03:41.573Z,0
2017-02-19T01:04:54.711Z,0
2017-02-19T01:06:08.412Z,0
2017-02-19T01:07:22.152Z,0
2017-02-19T01:08:35.255Z,0
2017-02-19T01:09:48.990Z,0
2017-02-19T01:11:02.706Z,0
2017-02-19T01:12:16.439Z,0
2017-02-19T01:13:30.157Z,0
2017-02-19T01:14:43.885Z,0
2017-02-19T01:15:57.612Z,0
2017-02-19T01:17:10.720Z,0
2017-02-19T01:18:23.827Z,0
2017-02-19T01:19:36.970Z,0
2017-02-19T01:20:50.098Z,0
2017-02-19T01:22:03.819Z,0
2017-02-19T01:23:16.327Z,0
2017-02-19T01:24:30.049Z,0
2017-02-19T01:25:43.748Z,0
2017-02-19T01:26:57.449Z,0
2017-02-19T01:28:10.616Z,0
2017-02-19T01:29:24.320Z,0
2017-02-19T01:30:38.081Z,0
2017-02-19T01:31:51.794Z,0
2017-02-19T01:33:05.560Z,0
2017-02-19T01:34:18.673Z,0
2017-02-19T01:35:32.453Z,0
2017-02-19T01:36:46.196Z,0
2017-02-19T01:37:59.919Z,0
2017-02-19T01:39:13.683Z,0
2017-02-19T01:40:26.230Z,0
2017-02-19T01:41:39.988Z,0
2017-02-19T01:42:53.771Z,0
2017-02-19T01:44:07.460Z,0
2017-02-19T01:45:21.165Z,0
2017-02-19T01:46:34.890Z,0
2017-02-19T01:47:48.044Z,0
2017-02-19T01:49:01.780Z,0
2017-02-19T01:50:14.899Z,0
2017-02-19T01:51:28.595Z,0
2017-02-19T01:52:41.746Z,0
2017-02-19T01:53:55.471Z,0
2017-02-19T01:55:08.589Z,0
2017-02-19T01:56:22.292Z,0
2017-02-19T01:57:35.428Z,0
2017-02-19T01:58:49.128Z,0
2017-02-19T02:00:02.864Z,0
2017-02-19T02:05:37.882Z,0
2017-02-19T02:06:51.971Z,0
2017-02-19T02:08:06.082Z,0
2017-02-19T02:09:19.237Z,0
2017-02-19T02:10:32.335Z,0
2017-02-19T02:11:46.018Z,0
2017-02-19T02:12:59.139Z,0
2017-02-19T02:14:12.839Z,0
2017-02-19T02:15:26.560Z,0
2017-02-19T02:16:40.287Z,0
2017-02-19T02:17:53.983Z,0
2017-02-19T02:19:07.741Z,0
2017-02-19T02:20:20.259Z,0
2017-02-19T02:21:33.984Z,0
2017-02-19T02:22:47.711Z,0
2017-02-19T02:24:01.464Z,0
2017-02-19T02:25:15.201Z,0
2017-02-19T02:26:28.936Z,0
2017-02-19T02:27:42.709Z,0
2017-02-19T02:28:56.439Z,0
2017-02-19T02:30:10.183Z,0
2017-02-19T02:35:15.077Z,0
2017-02-19T02:36:28.572Z,0
2017-02-19T02:37:42.719Z,0
2017-02-19T02:38:56.793Z,0
2017-02-19T02:40:10.502Z,0
2017-02-19T02:41:24.190Z,0
2017-02-19T02:42:37.895Z,0
2017-02-19T02:43:51.569Z,0
2017-02-19T02:45:05.268Z,0
2017-02-19T02:46:18.397Z,0
2017-02-19T02:47:32.162Z,0
2017-02-19T02:48:45.869Z,0
2017-02-19T02:49:58.981Z,0
2017-02-19T02:51:12.718Z,0
2017-02-19T02:52:26.429Z,0
2017-02-19T02:53:40.160Z,0
2017-02-19T02:54:53.863Z,0
2017-02-19T02:56:07.604Z,0
2017-02-19T02:57:20.746Z,0
2017-02-19T02:58:34.453Z,0
2017-02-19T02:59:48.182Z,0
2017-02-19T03:01:01.859Z,0
2017-02-19T03:02:14.993Z,0
2017-02-19T03:03:28.691Z,0
2017-02-19T03:04:41.769Z,0
2017-02-19T03:05:55.473Z,0
2017-02-19T03:07:08.588Z,0
2017-02-19T03:08:21.716Z,0
2017-02-19T03:09:34.844Z,0
2017-02-19T03:10:48.571Z,0
2017-02-19T03:12:02.290Z,0
2017-02-19T03:13:15.428Z,0
2017-02-19T03:14:29.155Z,0
2017-02-19T03:15:42.843Z,0
2017-02-19T03:16:55.985Z,0
2017-02-19T03:18:09.686Z,0
2017-02-19T03:19:23.425Z,0
2017-02-19T03:20:37.239Z,0
2017-02-19T03:21:51.023Z,0
2017-02-19T03:23:04.738Z,0
2017-02-19T03:24:18.454Z,0
2017-02-19T03:25:32.211Z,0
2017-02-19T03:26:45.930Z,0
2017-02-19T03:27:59.675Z,0
2017-02-19T03:29:13.402Z,0
2017-02-19T03:30:26.519Z,0
2017-02-19T03:31:40.286Z,0
2017-02-19T03:32:54.017Z,0
2017-02-19T03:34:07.758Z,0
2017-02-19T03:35:20.850Z,0
2017-02-19T03:36:34.540Z,0
2017-02-19T03:37:48.253Z,0
2017-02-19T03:39:01.956Z,0
2017-02-19T03:40:15.021Z,0
2017-02-19T03:41:28.697Z,0
2017-02-19T03:42:42.415Z,0
2017-02-19T03:43:56.123Z,0
2017-02-19T03:45:09.835Z,0
2017-02-19T03:46:23.567Z,0
2017-02-19T03:47:37.298Z,0
2017-02-19T03:48:51.021Z,0
2017-02-19T03:50:04.772Z,0
2017-02-19T03:51:17.931Z,0
2017-02-19T03:52:31.647Z,0
2017-02-19T03:53:45.372Z,0
2017-02-19T03:54:59.120Z,0
2017-02-19T03:56:12.331Z,0
2017-02-19T03:57:25.453Z,0
2017-02-19T03:58:39.175Z,0
2017-02-19T03:59:52.866Z,0
2017-02-19T04:01:06.569Z,0
2017-02-19T04:02:19.758Z,0
2017-02-19T04:03:33.551Z,0
2017-02-19T04:04:47.264Z,0
2017-02-19T04:06:00.978Z,0
2017-02-19T04:07:14.098Z,0
2017-02-19T04:08:27.820Z,0
2017-02-19T04:09:41.563Z,0
2017-02-19T04:10:55.259Z,0
2017-02-19T04:12:08.988Z,0
2017-02-19T04:13:21.568Z,0
2017-02-19T04:14:35.293Z,0
2017-02-19T04:15:48.996Z,0
2017-02-19T04:17:02.670Z,0
2017-02-19T04:18:15.780Z,0
2017-02-19T04:19:28.891Z,0
2017-02-19T04:20:42.068Z,0
2017-02-19T04:21:55.780Z,0
2017-02-19T04:23:09.515Z,0
2017-02-19T04:24:23.222Z,0
2017-02-19T04:25:36.903Z,0
2017-02-19T04:26:50.610Z,0
2017-02-19T04:28:04.366Z,0
2017-02-19T04:29:18.114Z,0
2017-02-19T04:30:31.819Z,0
2017-02-19T04:31:45.534Z,0
2017-02-19T04:32:59.333Z,0
2017-02-19T04:34:13.033Z,0
2017-02-19T04:35:26.133Z,0
2017-02-19T04:36:39.864Z,0
2017-02-19T04:37:53.027Z,0
2017-02-19T04:39:06.721Z,0
2017-02-19T04:40:19.847Z,0
2017-02-19T04:41:33.551Z,0
2017-02-19T04:42:47.254Z,0
2017-02-19T04:44:00.985Z,0
2017-02-19T04:45:14.693Z,0
2017-02-19T04:46:28.409Z,0
2017-02-19T04:47:42.095Z,0
2017-02-19T04:48:55.856Z,0
2017-02-19T04:50:09.590Z,0
2017-02-19T04:51:22.692Z,0
2017-02-19T04:52:36.409Z,0
2017-02-19T04:53:50.171Z,0
2017-02-19T04:55:03.938Z,0
2017-02-19T04:56:17.079Z,0
2017-02-19T04:57:30.243Z,0
2017-02-19T04:58:43.931Z,0
2017-02-19T04:59:57.642Z,0
2017-02-19T05:01:11.409Z,0
2017-02-19T05:02:24.590Z,0
2017-02-19T05:03:37.727Z,0
2017-02-19T05:04:51.411Z,0
2017-02-19T05:06:05.110Z,0
2017-02-19T05:07:18.789Z,0
2017-02-19T05:08:32.583Z,0
2017-02-19T05:09:46.276Z,0
2017-02-19T05:10:59.968Z,0
2017-02-19T05:12:13.676Z,0
2017-02-19T05:13:26.792Z,0
2017-02-19T05:14:40.509Z,0
2017-02-19T05:15:54.230Z,0
2017-02-19T05:17:07.984Z,0
2017-02-19T05:18:21.114Z,0
2017-02-19T05:19:34.848Z,0
2017-02-19T05:20:48.578Z,0
2017-02-19T05:22:02.267Z,0
2017-02-19T05:23:15.358Z,0
2017-02-19T05:24:29.063Z,0
2017-02-19T05:25:42.766Z,0
2017-02-19T05:26:55.877Z,0
2017-02-19T05:28:08.991Z,0
2017-02-19T05:29:22.712Z,0
2017-02-19T05:30:36.440Z,0
2017-02-19T05:31:50.128Z,0
2017-02-19T05:33:03.866Z,0
2017-02-19T05:34:16.981Z,0
2017-02-19T05:35:30.649Z,0
2017-02-19T05:36:44.397Z,0
2017-02-19T05:37:58.157Z,0
2017-02-19T05:39:11.914Z,0
2017-02-19T05:40:25.020Z,0
2017-02-19T05:41:38.712Z,0
2017-02-19T05:42:51.803Z,0
2017-02-19T05:44:05.505Z,0
2017-02-19T05:45:19.241Z,0
2017-02-19T05:46:32.916Z,0
2017-02-19T05:47:46.609Z,0
2017-02-19T05:49:00.313Z,0
2017-02-19T05:50:13.439Z,0
2017-02-19T05:51:27.172Z,0
2017-02-19T05:52:40.907Z,0
2017-02-19T05:53:54.588Z,0
2017-02-19T05:55:08.348Z,0
2017-02-19T05:56:20.904Z,0
2017-02-19T05:57:34.631Z,0
2017-02-19T05:58:48.327Z,0
2017-02-19T06:00:02.041Z,0
2017-02-19T06:01:15.141Z,0
2017-02-19T06:02:27.671Z,0
2017-02-19T06:03:41.393Z,0
2017-02-19T06:04:54.547Z,0
2017-02-19T06:06:08.255Z,0
2017-02-19T06:07:21.967Z,0
2017-02-19T06:08:35.087Z,0
2017-02-19T06:09:48.233Z,0
2017-02-19T06:11:01.968Z,0
2017-02-19T06:12:15.143Z,0
2017-02-19T06:13:28.950Z,0
2017-02-19T06:14:42.662Z,0
2017-02-19T06:15:56.397Z,0
2017-02-19T06:17:10.065Z,0
2017-02-19T06:18:22.602Z,0
2017-02-19T06:19:36.312Z,0
2017-02-19T06:20:50.038Z,0
2017-02-19T06:22:03.912Z,0
2017-02-19T06:23:17.011Z,0
2017-02-19T06:24:30.790Z,0
2017-02-19T06:25:44.501Z,0
2017-02-19T06:26:58.221Z,0
2017-02-19T06:28:11.946Z,0
2017-02-19T06:29:24.510Z,0
2017-02-19T06:30:37.667Z,0
2017-02-19T06:31:50.797Z,0
2017-02-19T06:33:04.505Z,0
2017-02-19T06:34:18.224Z,0
2017-02-19T06:35:31.907Z,0
2017-02-19T06:36:45.597Z,0
2017-02-19T06:37:59.320Z,0
2017-02-19T06:39:13.028Z,0
2017-02-19T06:40:26.136Z,0
2017-02-19T06:41:39.840Z,0
2017-02-19T06:42:53.536Z,0
2017-02-19T06:44:07.215Z,0
2017-02-19T06:45:20.935Z,0
2017-02-19T06:46:34.652Z,0
2017-02-19T06:47:47.805Z,0
2017-02-19T06:49:01.530Z,0
2017-02-19T06:50:14.618Z,0
2017-02-19T06:51:27.139Z,0
2017-02-19T06:52:40.824Z,0
2017-02-19T06:53:54.000Z,0
2017-02-19T06:55:07.729Z,0
2017-02-19T06:56:21.411Z,0
2017-02-19T06:57:35.107Z,0
2017-02-19T06:58:48.785Z,0
2017-02-19T07:00:02.480Z,0
2017-02-19T07:01:16.194Z,0
2017-02-19T07:02:29.319Z,0
2017-02-19T07:03:42.439Z,0
2017-02-19T07:04:56.150Z,0
2017-02-19T07:06:09.849Z,0
2017-02-19T07:07:22.985Z,0
2017-02-19T07:08:36.079Z,0
2017-02-19T07:09:49.797Z,0
2017-02-19T07:11:03.506Z,0
2017-02-19T07:12:17.217Z,0
2017-02-19T07:13:29.719Z,0
2017-02-19T07:14:43.456Z,0
2017-02-19T07:15:57.151Z,0
2017-02-19T07:17:10.244Z,0
2017-02-19T07:18:23.354Z,0
2017-02-19T07:19:37.052Z,0
2017-02-19T07:20:50.752Z,0
2017-02-19T07:22:04.455Z,0
2017-02-19T07:23:16.933Z,0
2017-02-19T07:24:30.676Z,0
2017-02-19T07:25:44.396Z,0
2017-02-19T07:26:58.091Z,0
2017-02-19T07:28:11.806Z,0
2017-02-19T07:29:23.756Z,0
2017-02-19T07:30:37.450Z,0
2017-02-19T07:31:51.176Z,0
2017-02-19T07:33:04.946Z,0
2017-02-19T07:34:18.031Z,0
2017-02-19T07:35:31.714Z,0
2017-02-19T07:36:45.512Z,0
2017-02-19T07:37:59.291Z,0
2017-02-19T07:39:13.015Z,0
2017-02-19T07:40:26.143Z,0
2017-02-19T07:41:39.838Z,0
2017-02-19T07:42:52.977Z,0
2017-02-19T07:44:06.067Z,0
2017-02-19T07:45:19.161Z,0
2017-02-19T07:46:31.670Z,0
2017-02-19T07:47:45.431Z,0
2017-02-19T07:48:59.170Z,0
2017-02-19T07:50:12.274Z,0
2017-02-19T07:51:25.404Z,0
2017-02-19T07:52:38.547Z,0
2017-02-19T07:53:52.246Z,0
2017-02-19T07:55:05.954Z,0
2017-02-19T07:56:19.666Z,0
2017-02-19T07:57:33.376Z,0
2017-02-19T07:58:47.080Z,0
2017-02-19T08:00:00.774Z,0
2017-02-19T08:01:13.916Z,0
2017-02-19T08:02:27.661Z,0
2017-02-19T08:03:41.358Z,0
2017-02-19T08:04:54.481Z,0
2017-02-19T08:06:08.223Z,0
2017-02-19T08:07:22.239Z,0
2017-02-19T08:08:35.938Z,0
2017-02-19T08:09:49.748Z,0
2017-02-19T08:11:03.491Z,0
2017-02-19T08:12:16.597Z,0
2017-02-19T08:13:30.277Z,0
2017-02-19T08:14:44.017Z,0
2017-02-19T08:15:57.760Z,0
2017-02-19T08:17:10.908Z,0
2017-02-19T08:18:24.648Z,0
2017-02-19T08:19:37.730Z,0
2017-02-19T08:20:51.476Z,0
2017-02-19T08:22:05.233Z,0
2017-02-19T08:23:18.919Z,0
2017-02-19T08:24:32.039Z,0
2017-02-19T08:25:45.724Z,0
2017-02-19T08:26:59.488Z,0
2017-02-19T08:28:13.209Z,0
2017-02-19T08:29:26.904Z,0
2017-02-19T08:30:40.045Z,0
2017-02-19T08:31:53.793Z,0
2017-02-19T08:33:07.522Z,0
2017-02-19T08:34:20.682Z,0
2017-02-19T08:35:34.411Z,0
2017-02-19T08:36:48.116Z,0
2017-02-19T08:38:01.833Z,0
2017-02-19T08:39:14.945Z,0
2017-02-19T08:40:28.646Z,0
2017-02-19T08:41:42.394Z,0
2017-02-19T08:42:56.116Z,0
2017-02-19T08:44:09.829Z,0
2017-02-19T08:45:23.530Z,0
2017-02-19T08:46:37.302Z,5
2017-02-19T08:47:50.997Z,5
2017-02-19T08:49:04.756Z,5
2017-02-19T08:50:18.517Z,10
2017-02-19T08:51:32.232Z,10
2017-02-19T08:52:45.414Z,15
2017-02-19T08:53:59.110Z,15
2017-02-19T08:55:12.866Z,20
2017-02-19T08:56:25.984Z,25
2017-02-19T08:57:39.118Z,30
2017-02-19T08:58:52.831Z,35
2017-02-19T09:00:06.035Z,40
2017-02-19T09:01:19.748Z,45
2017-02-19T09:02:33.465Z,50
2017-02-19T09:03:47.182Z,55
2017-02-19T09:05:00.880Z,65
2017-02-19T09:06:13.971Z,75
2017-02-19T09:07:27.739Z,80
2017-02-19T09:08:41.508Z,90
2017-02-19T09:09:54.636Z,100
2017-02-19T09:11:08.367Z,125
2017-02-19T09:12:20.883Z,125
2017-02-19T09:13:34.571Z,145
2017-02-19T09:14:48.269Z,150
2017-02-19T09:16:02.017Z,170
2017-02-19T09:17:15.769Z,180
2017-02-19T09:18:29.483Z,200
2017-02-19T09:19:43.195Z,215
2017-02-19T09:20:56.972Z,225
2017-02-19T09:22:10.714Z,240
2017-02-19T09:23:24.416Z,260
2017-02-19T09:24:38.153Z,270
2017-02-19T09:25:51.879Z,290
2017-02-19T09:27:05.615Z,305
2017-02-19T09:28:18.757Z,315
2017-02-19T09:29:31.882Z,340
2017-02-19T09:30:45.608Z,365
2017-02-19T09:31:59.295Z,385
2017-02-19T09:33:13.018Z,410
2017-02-19T09:34:26.738Z,440
2017-02-19T09:35:39.861Z,455
2017-02-19T09:36:53.595Z,480
2017-02-19T09:38:07.292Z,505
2017-02-19T09:39:21.067Z,520
2017-02-19T09:40:34.839Z,550
2017-02-19T09:41:48.558Z,580
2017-02-19T09:43:01.667Z,605
2017-02-19T09:44:14.787Z,625
2017-02-19T09:45:28.481Z,635
2017-02-19T09:46:42.215Z,650
2017-02-19T09:47:55.923Z,690
2017-02-19T09:49:09.662Z,710
2017-02-19T09:50:23.353Z,735
2017-02-19T09:51:37.056Z,755
2017-02-19T09:52:50.800Z,775
2017-02-19T09:54:04.519Z,795
2017-02-19T09:55:18.244Z,835
2017-02-19T09:56:31.393Z,860
2017-02-19T09:57:45.095Z,900
2017-02-19T09:58:58.851Z,940
2017-02-19T10:00:12.601Z,960
2017-02-19T10:01:25.118Z,965
2017-02-19T10:02:38.873Z,980
2017-02-19T10:03:52.643Z,995
2017-02-19T10:05:05.176Z,1015
2017-02-19T10:06:18.325Z,1030
2017-02-19T10:07:32.036Z,1055
2017-02-19T10:08:45.722Z,1100
2017-02-19T10:09:59.456Z,1105
2017-02-19T10:11:13.218Z,1115
2017-02-19T10:12:26.952Z,1145
2017-02-19T10:13:40.710Z,1180
2017-02-19T10:14:54.441Z,1210
2017-02-19T10:16:07.612Z,1265
2017-02-19T10:17:21.301Z,1295
2017-02-19T10:18:34.431Z,1315
2017-02-19T10:19:48.168Z,1360
2017-02-19T10:21:01.899Z,1360
2017-02-19T10:22:15.617Z,1380
2017-02-19T10:23:28.731Z,1385
2017-02-19T10:24:42.489Z,1405
2017-02-19T10:25:55.699Z,1410
2017-02-19T10:27:09.409Z,1460
2017-02-19T10:28:23.145Z,1485
2017-02-19T10:29:36.888Z,1550
2017-02-19T10:30:50.559Z,1555
2017-02-19T10:32:04.300Z,1585
2017-02-19T10:33:17.435Z,1600
2017-02-19T10:34:31.173Z,1510
2017-02-19T10:35:43.737Z,1430
2017-02-19T10:36:57.442Z,1425
2017-02-19T10:38:11.182Z,1460
2017-02-19T10:39:24.340Z,1565
2017-02-19T10:40:38.065Z,1680
2017-02-19T10:41:51.228Z,1780
2017-02-19T10:43:04.973Z,1655
2017-02-19T10:44:18.081Z,1560
2017-02-19T10:45:31.822Z,1620
2017-02-19T10:46:45.589Z,1645
2017-02-19T10:47:59.321Z,1635
2017-02-19T10:49:13.079Z,1625
2017-02-19T10:50:26.204Z,1605
2017-02-19T10:51:39.951Z,1785
2017-02-19T10:52:53.094Z,1885
2017-02-19T10:54:06.207Z,1875
2017-02-19T10:55:19.912Z,1920
2017-02-19T10:56:33.665Z,1975
2017-02-19T10:57:47.389Z,2025
2017-02-19T10:59:01.085Z,1985
2017-02-19T11:00:13.001Z,1970
2017-02-19T11:01:26.726Z,2040
2017-02-19T11:02:40.447Z,1975
2017-02-19T11:03:54.176Z,1865
2017-02-19T11:05:07.363Z,1825
2017-02-19T11:06:21.024Z,1855
2017-02-19T11:07:34.742Z,1890
2017-02-19T11:08:48.512Z,1855
2017-02-19T11:10:02.262Z,1805
2017-02-19T11:11:15.986Z,1655
2017-02-19T11:12:29.764Z,1665
2017-02-19T11:13:42.962Z,1545
2017-02-19T11:14:56.077Z,1435
2017-02-19T11:16:09.206Z,1390
2017-02-19T11:17:22.342Z,1350
2017-02-19T11:18:35.481Z,1390
2017-02-19T11:19:47.983Z,1560
2017-02-19T11:21:01.702Z,1635
2017-02-19T11:22:15.407Z,1700
2017-02-19T11:23:29.153Z,1775
2017-02-19T11:24:42.827Z,2025
2017-02-19T11:25:56.535Z,2105
2017-02-19T11:27:09.696Z,2075
2017-02-19T11:28:22.819Z,2090
2017-02-19T11:29:35.354Z,2250
2017-02-19T11:30:49.046Z,2145
2017-02-19T11:32:02.190Z,2435
2017-02-19T11:33:15.323Z,2360
2017-02-19T11:34:29.032Z,2125
2017-02-19T11:35:42.167Z,2240
2017-02-19T11:36:55.902Z,2490
2017-02-19T11:38:09.623Z,2475
2017-02-19T11:39:22.749Z,2510
2017-02-19T11:40:35.926Z,2680
2017-02-19T11:41:49.698Z,2500
2017-02-19T11:43:02.823Z,2475
2017-02-19T11:44:16.535Z,2495
2017-02-19T11:45:30.255Z,2510
2017-02-19T11:46:43.993Z,2475
2017-02-19T11:47:57.715Z,2535
2017-02-19T11:49:11.437Z,2660
2017-02-19T11:50:24.555Z,2665
2017-02-19T11:51:38.286Z,2350
2017-02-19T11:52:52.016Z,2555
2017-02-19T11:54:05.728Z,2605
2017-02-19T11:55:19.420Z,2650
2017-02-19T11:56:33.185Z,2605
2017-02-19T11:57:46.922Z,2605
2017-02-19T11:59:00.676Z,2685
2017-02-19T12:00:14.406Z,2800
2017-02-19T12:01:28.126Z,2735
2017-02-19T12:02:41.890Z,2785
2017-02-19T12:03:55.635Z,2710
2017-02-19T12:05:08.768Z,2700
2017-02-19T12:06:22.520Z,2905
2017-02-19T12:07:36.232Z,2990
2017-02-19T12:08:50.001Z,3025
2017-02-19T12:10:03.769Z,3005
2017-02-19T12:11:16.942Z,2910
2017-02-19T12:12:30.704Z,2975
2017-02-19T12:13:43.813Z,2750
2017-02-19T12:14:57.538Z,2910
2017-02-19T12:16:11.335Z,2840
2017-02-19T12:17:25.045Z,2875
2017-02-19T12:18:38.747Z,2835
2017-02-19T12:19:52.511Z,2905
2017-02-19T12:21:05.645Z,2885
2017-02-19T12:22:19.371Z,2655
2017-02-19T12:23:33.082Z,2915
2017-02-19T12:24:46.785Z,2945
2017-02-19T12:26:00.519Z,3075
2017-02-19T12:27:14.259Z,3025
2017-02-19T12:28:26.761Z,3105
2017-02-19T12:29:39.868Z,2650
2017-02-19T12:30:53.587Z,2830
2017-02-19T12:32:06.749Z,2945
2017-02-19T12:33:20.447Z,3060
2017-02-19T12:34:33.627Z,3110
2017-02-19T12:35:46.144Z,2980
2017-02-19T12:36:59.907Z,3115
2017-02-19T12:38:12.443Z,3170
2017-02-19T12:39:26.161Z,3060
2017-02-19T12:40:39.921Z,3205
2017-02-19T12:41:53.067Z,3420
2017-02-19T12:43:06.221Z,3300
2017-02-19T12:44:19.968Z,2970
2017-02-19T12:45:33.730Z,2690
2017-02-19T12:46:47.555Z,2840
2017-02-19T12:48:01.277Z,3430
2017-02-19T12:49:15.009Z,3360
2017-02-19T12:50:28.743Z,3620
2017-02-19T12:51:41.978Z,3490
2017-02-19T12:52:55.776Z,3625
2017-02-19T12:54:08.879Z,3465
2017-02-19T12:55:22.630Z,3470
2017-02-19T12:56:36.349Z,3615
2017-02-19T12:57:49.472Z,3475
2017-02-19T12:59:03.196Z,3565
2017-02-19T13:00:16.911Z,3630
2017-02-19T13:01:30.705Z,3335
2017-02-19T13:02:44.442Z,3270
2017-02-19T13:03:58.193Z,3290
2017-02-19T13:05:11.902Z,3545
2017-02-19T13:06:25.008Z,3430
2017-02-19T13:07:38.723Z,3625
2017-02-19T13:08:52.474Z,3605
2017-02-19T13:10:05.603Z,3830
2017-02-19T13:11:19.304Z,3640
2017-02-19T13:12:33.060Z,3695
2017-02-19T13:13:46.850Z,3540
2017-02-19T13:15:00.579Z,3810
2017-02-19T13:16:14.264Z,3795
2017-02-19T13:17:28.037Z,3635
2017-02-19T13:18:41.193Z,3665
2017-02-19T13:19:55.016Z,3525
2017-02-19T13:21:08.771Z,3315
2017-02-19T13:22:21.893Z,3615
2017-02-19T13:23:35.032Z,3955
2017-02-19T13:24:48.156Z,3885
2017-02-19T13:26:01.859Z,3515
2017-02-19T13:27:14.974Z,3430
2017-02-19T13:28:28.678Z,3330
2017-02-19T13:29:42.411Z,3375
2017-02-19T13:30:55.566Z,3870
2017-02-19T13:32:08.714Z,4030
2017-02-19T13:33:22.457Z,4070
2017-02-19T13:34:36.205Z,4095
2017-02-19T13:35:49.921Z,3945
2017-02-19T13:37:03.648Z,4030
2017-02-19T13:38:17.378Z,3910
2017-02-19T13:39:30.502Z,4130
2017-02-19T13:40:43.624Z,4105
2017-02-19T13:41:57.345Z,3835
2017-02-19T13:43:11.058Z,4090
2017-02-19T13:44:24.204Z,4070
2017-02-19T13:45:37.907Z,4005
2017-02-19T13:46:51.664Z,3545
2017-02-19T13:48:05.400Z,4015
2017-02-19T13:49:19.115Z,4325
2017-02-19T13:50:32.848Z,4395
2017-02-19T13:51:46.614Z,4155
2017-02-19T13:53:00.358Z,4190
2017-02-19T13:54:12.890Z,4095
2017-02-19T13:55:26.624Z,4450
2017-02-19T13:56:40.342Z,4270
2017-02-19T13:57:54.142Z,3235
2017-02-19T13:59:07.300Z,4100
2017-02-19T14:00:20.416Z,4325
2017-02-19T14:01:33.547Z,4305
2017-02-19T14:02:47.247Z,4365
2017-02-19T14:04:00.390Z,4060
2017-02-19T14:05:13.514Z,4370
2017-02-19T14:06:27.271Z,4375
2017-02-19T14:07:41.009Z,4335
2017-02-19T14:08:54.720Z,4450
2017-02-19T14:10:08.495Z,4570
2017-02-19T14:11:21.609Z,4625
2017-02-19T14:12:34.185Z,4540
2017-02-19T14:13:47.927Z,4660
2017-02-19T14:15:01.673Z,4280
2017-02-19T14:16:14.799Z,4390
2017-02-19T14:17:28.576Z,4175
2017-02-19T14:18:42.294Z,4085
2017-02-19T14:19:55.403Z,4550
2017-02-19T14:21:08.513Z,4365
2017-02-19T14:22:21.664Z,4375
2017-02-19T14:23:34.778Z,4485
2017-02-19T14:24:48.502Z,4515
2017-02-19T14:26:02.234Z,4245
2017-02-19T14:27:15.353Z,4050
2017-02-19T14:28:28.458Z,4200
2017-02-19T14:29:42.251Z,4225
2017-02-19T14:30:54.779Z,4420
2017-02-19T14:32:08.527Z,4595
2017-02-19T14:33:21.071Z,4580
2017-02-19T14:34:34.780Z,4540
2017-02-19T14:35:48.550Z,4545
2017-02-19T14:37:02.300Z,4535
2017-02-19T14:38:15.433Z,4630
2017-02-19T14:39:29.228Z,4680
2017-02-19T14:40:42.954Z,4415
2017-02-19T14:41:54.929Z,4295
2017-02-19T14:43:08.653Z,4305
2017-02-19T14:44:22.382Z,4470
2017-02-19T14:45:36.134Z,4160
2017-02-19T14:46:49.222Z,4470
2017-02-19T14:48:02.919Z,4640
2017-02-19T14:49:16.069Z,4685
2017-02-19T14:50:29.763Z,4505
2017-02-19T14:51:43.491Z,4145
2017-02-19T14:52:57.254Z,3550
2017-02-19T14:54:11.020Z,4150
2017-02-19T14:55:24.148Z,4455
2017-02-19T14:56:37.888Z,4360
2017-02-19T14:57:51.613Z,3650
2017-02-19T14:59:05.327Z,4260
2017-02-19T15:00:19.070Z,4410
2017-02-19T15:01:32.843Z,4420
2017-02-19T15:02:45.403Z,4570
2017-02-19T15:03:59.186Z,4295
2017-02-19T15:05:12.311Z,4540
2017-02-19T15:06:26.020Z,4465
2017-02-19T15:07:39.819Z,4625
2017-02-19T15:08:53.540Z,4540
2017-02-19T15:10:06.659Z,4230
2017-02-19T15:11:20.372Z,4260
2017-02-19T15:12:34.077Z,4725
2017-02-19T15:13:47.841Z,4845
2017-02-19T15:15:00.372Z,4665
2017-02-19T15:16:14.140Z,4595
2017-02-19T15:17:27.921Z,4715
2017-02-19T15:18:41.679Z,4600
2017-02-19T15:19:55.384Z,4735
2017-02-19T15:21:09.173Z,4920
2017-02-19T15:22:22.988Z,4560
2017-02-19T15:23:36.738Z,4500
2017-02-19T15:24:50.510Z,3905
2017-02-19T15:26:04.273Z,4360
2017-02-19T15:27:18.034Z,2155
2017-02-19T15:28:31.790Z,1420
2017-02-19T15:29:44.904Z,4670
2017-02-19T15:30:57.426Z,4585
2017-02-19T15:32:10.572Z,4430
2017-02-19T15:33:23.732Z,4490
2017-02-19T15:34:37.527Z,4440
2017-02-19T15:35:51.313Z,4645
2017-02-19T15:37:05.130Z,4630
2017-02-19T15:38:18.858Z,4550
2017-02-19T15:39:32.581Z,4485
2017-02-19T15:40:45.745Z,4720
2017-02-19T15:41:58.886Z,4315
2017-02-19T15:43:12.661Z,4260
2017-02-19T15:44:25.771Z,4260
2017-02-19T15:45:39.507Z,4565
2017-02-19T15:46:53.258Z,4450
2017-02-19T15:48:06.395Z,1190
2017-02-19T15:49:19.490Z,1200
2017-02-19T15:50:33.264Z,3195
2017-02-19T15:51:47.019Z,4195
2017-02-19T15:53:00.760Z,1355
2017-02-19T15:54:13.901Z,1270
2017-02-19T15:55:27.635Z,3350
2017-02-19T15:56:41.403Z,4265
2017-02-19T15:57:55.151Z,3040
2017-02-19T15:59:08.901Z,4600
2017-02-19T16:00:21.967Z,4750
2017-02-19T16:01:35.719Z,4635
2017-02-19T16:02:49.498Z,4770
2017-02-19T16:04:02.598Z,4710
2017-02-19T16:05:16.320Z,3830
2017-02-19T16:06:30.098Z,2450
2017-02-19T16:07:43.842Z,3850
2017-02-19T16:08:57.555Z,4620
2017-02-19T16:10:10.708Z,4655
2017-02-19T16:11:24.442Z,4425
2017-02-19T16:12:38.180Z,4050
2017-02-19T16:13:51.890Z,2680
2017-02-19T16:15:05.625Z,2945
2017-02-19T16:16:18.785Z,2600
2017-02-19T16:17:32.509Z,1375
2017-02-19T16:18:45.667Z,1475
2017-02-19T16:19:59.377Z,1350
2017-02-19T16:21:13.134Z,1320
2017-02-19T16:22:26.270Z,1380
2017-02-19T16:23:39.389Z,1290
2017-02-19T16:24:53.140Z,1175
2017-02-19T16:26:06.276Z,1105
2017-02-19T16:27:20.030Z,1140
2017-02-19T16:28:33.757Z,1185
2017-02-19T16:29:47.522Z,2995
2017-02-19T16:31:01.265Z,2100
2017-02-19T16:32:13.787Z,3475
2017-02-19T16:33:27.515Z,3675
2017-02-19T16:34:41.220Z,3885
2017-02-19T16:35:54.937Z,3785
2017-02-19T16:37:08.695Z,3830
2017-02-19T16:38:22.394Z,3850
2017-02-19T16:39:36.110Z,4080
2017-02-19T16:40:49.817Z,4230
2017-02-19T16:42:03.554Z,4290
2017-02-19T16:43:16.718Z,4285
2017-02-19T16:44:30.435Z,4190
2017-02-19T16:45:44.213Z,4160
2017-02-19T16:46:57.987Z,4400
2017-02-19T16:48:11.695Z,4210
2017-02-19T16:49:25.422Z,4205
2017-02-19T16:50:39.188Z,4180
2017-02-19T16:51:52.905Z,4425
2017-02-19T16:53:06.687Z,4470
2017-02-19T16:54:19.830Z,1205
2017-02-19T16:55:33.582Z,1160
2017-02-19T16:56:47.309Z,3915
2017-02-19T16:58:01.056Z,1300
2017-02-19T16:59:14.183Z,1170
2017-02-19T17:00:27.341Z,1090
2017-02-19T17:01:40.461Z,1135
2017-02-19T17:02:54.167Z,1755
2017-02-19T17:04:06.727Z,3550
2017-02-19T17:05:20.471Z,1260
2017-02-19T17:06:34.195Z,1090
2017-02-19T17:07:47.925Z,1010
2017-02-19T17:09:01.660Z,955
2017-02-19T17:10:14.762Z,945
2017-02-19T17:11:28.505Z,940
2017-02-19T17:12:42.248Z,940
2017-02-19T17:13:55.375Z,960
2017-02-19T17:15:08.512Z,940
2017-02-19T17:16:22.253Z,965
2017-02-19T17:17:36.008Z,1115
2017-02-19T17:18:49.759Z,3440
2017-02-19T17:20:03.513Z,2840
2017-02-19T17:21:17.231Z,3360
2017-02-19T17:22:30.959Z,4130